sensor_id;sensor_type;location;lat;lon;timestamp;temperature;humidity
59148;DHT22;44930;52.878;6.168;2022-08-21T00:00:23;15.70;99.90
59148;DHT22;44930;52.878;6.168;2022-08-21T00:03:00;16.00;99.90
59148;DHT22;44930;52.878;6.168;2022-08-21T00:05:27;15.80;99.90
59148;DHT22;44930;52.878;6.168;2022-08-21T00:07:54;15.50;99.90
59148;DHT22;44930;52.878;6.168;2022-08-21T00:10:20;15.90;99.90
59148;DHT22;44930;52.878;6.168;2022-08-21T00:12:45;15.80;99.90
59148;DHT22;44930;52.878;6.168;2022-08-21T00:15:15;15.30;99.90
59148;DHT22;44930;52.878;6.168;2022-08-21T00:17:42;16.10;99.90
59148;DHT22;44930;52.878;6.168;2022-08-21T00:20:12;15.60;99.90
59148;DHT22;44930;52.878;6.168;2022-08-21T00:22:39;15.70;99.90
59148;DHT22;44930;52.878;6.168;2022-08-21T00:25:06;15.60;99.90
59148;DHT22;44930;52.878;6.168;2022-08-21T00:27:32;15.40;99.90
59148;DHT22;44930;52.878;6.168;2022-08-21T00:29:58;15.30;99.90
59148;DHT22;44930;52.878;6.168;2022-08-21T00:32:25;15.60;99.90
59148;DHT22;44930;52.878;6.168;2022-08-21T00:34:52;15.50;99.90
59148;DHT22;44930;52.878;6.168;2022-08-21T00:37:18;15.10;99.90
59148;DHT22;44930;52.878;6.168;2022-08-21T00:39:44;15.30;99.90
59148;DHT22;44930;52.878;6.168;2022-08-21T00:42:10;15.30;99.90
59148;DHT22;44930;52.878;6.168;2022-08-21T00:44:35;16.60;99.90
59148;DHT22;44930;52.878;6.168;2022-08-21T00:47:01;15.10;99.90
59148;DHT22;44930;52.878;6.168;2022-08-21T00:49:27;15.80;99.90
59148;DHT22;44930;52.878;6.168;2022-08-21T00:51:57;15.40;99.90
59148;DHT22;44930;52.878;6.168;2022-08-21T00:54:25;15.60;99.90
59148;DHT22;44930;52.878;6.168;2022-08-21T00:57:00;15.60;99.90
59148;DHT22;44930;52.878;6.168;2022-08-21T00:59:28;15.40;99.90
59148;DHT22;44930;52.878;6.168;2022-08-21T01:01:56;15.50;99.90
59148;DHT22;44930;52.878;6.168;2022-08-21T01:04:22;15.80;99.90
59148;DHT22;44930;52.878;6.168;2022-08-21T01:06:48;15.90;99.90
59148;DHT22;44930;52.878;6.168;2022-08-21T01:09:14;15.40;99.90
59148;DHT22;44930;52.878;6.168;2022-08-21T01:11:40;15.20;99.90
59148;DHT22;44930;52.878;6.168;2022-08-21T01:14:08;15.60;99.90
59148;DHT22;44930;52.878;6.168;2022-08-21T01:16:38;15.50;99.90
59148;DHT22;44930;52.878;6.168;2022-08-21T01:19:06;15.10;99.90
59148;DHT22;44930;52.878;6.168;2022-08-21T01:21:32;15.20;99.90
59148;DHT22;44930;52.878;6.168;2022-08-21T01:23:58;15.10;99.90
59148;DHT22;44930;52.878;6.168;2022-08-21T01:26:26;15.60;99.90
59148;DHT22;44930;52.878;6.168;2022-08-21T01:29:09;15.00;99.90
59148;DHT22;44930;52.878;6.168;2022-08-21T01:31:37;15.30;99.90
59148;DHT22;44930;52.878;6.168;2022-08-21T01:34:03;15.20;99.90
59148;DHT22;44930;52.878;6.168;2022-08-21T01:36:29;15.30;99.90
59148;DHT22;44930;52.878;6.168;2022-08-21T01:38:56;15.40;99.90
59148;DHT22;44930;52.878;6.168;2022-08-21T01:41:22;15.30;99.90
59148;DHT22;44930;52.878;6.168;2022-08-21T01:43:48;15.80;99.90
59148;DHT22;44930;52.878;6.168;2022-08-21T01:46:13;15.60;99.90
59148;DHT22;44930;52.878;6.168;2022-08-21T01:48:39;15.30;99.90
59148;DHT22;44930;52.878;6.168;2022-08-21T01:51:05;15.90;99.90
59148;DHT22;44930;52.878;6.168;2022-08-21T01:53:33;15.20;99.90
59148;DHT22;44930;52.878;6.168;2022-08-21T01:56:01;14.90;99.90
59148;DHT22;44930;52.878;6.168;2022-08-21T01:58:27;15.40;99.90
59148;DHT22;44930;52.878;6.168;2022-08-21T02:00:52;14.90;99.90
59148;DHT22;44930;52.878;6.168;2022-08-21T02:03:18;14.90;99.90
59148;DHT22;44930;52.878;6.168;2022-08-21T02:05:43;14.70;99.90
59148;DHT22;44930;52.878;6.168;2022-08-21T02:08:09;15.30;99.90
59148;DHT22;44930;52.878;6.168;2022-08-21T02:10:34;14.70;99.90
59148;DHT22;44930;52.878;6.168;2022-08-21T02:13:00;14.60;99.90
59148;DHT22;44930;52.878;6.168;2022-08-21T02:15:28;14.60;99.90
59148;DHT22;44930;52.878;6.168;2022-08-21T02:17:56;14.50;99.90
59148;DHT22;44930;52.878;6.168;2022-08-21T02:20:35;14.50;99.90
59148;DHT22;44930;52.878;6.168;2022-08-21T02:23:02;15.00;99.90
59148;DHT22;44930;52.878;6.168;2022-08-21T02:25:28;14.80;99.90
59148;DHT22;44930;52.878;6.168;2022-08-21T02:27:54;14.20;99.90
59148;DHT22;44930;52.878;6.168;2022-08-21T02:30:29;14.40;99.90
59148;DHT22;44930;52.878;6.168;2022-08-21T02:32:55;14.10;99.90
59148;DHT22;44930;52.878;6.168;2022-08-21T02:35:21;14.30;99.90
59148;DHT22;44930;52.878;6.168;2022-08-21T02:37:49;14.40;99.90
59148;DHT22;44930;52.878;6.168;2022-08-21T02:40:16;13.90;99.90
59148;DHT22;44930;52.878;6.168;2022-08-21T02:42:42;14.10;99.90
59148;DHT22;44930;52.878;6.168;2022-08-21T02:45:09;14.60;99.90
59148;DHT22;44930;52.878;6.168;2022-08-21T02:47:34;14.20;99.90
59148;DHT22;44930;52.878;6.168;2022-08-21T02:50:00;13.90;99.90
59148;DHT22;44930;52.878;6.168;2022-08-21T02:52:26;14.00;99.90
59148;DHT22;44930;52.878;6.168;2022-08-21T02:54:51;14.00;99.90
59148;DHT22;44930;52.878;6.168;2022-08-21T02:57:17;14.20;99.90
59148;DHT22;44930;52.878;6.168;2022-08-21T02:59:42;13.60;99.90
59148;DHT22;44930;52.878;6.168;2022-08-21T03:02:08;14.10;99.90
59148;DHT22;44930;52.878;6.168;2022-08-21T03:04:33;14.00;99.90
59148;DHT22;44930;52.878;6.168;2022-08-21T03:06:59;13.90;99.90
59148;DHT22;44930;52.878;6.168;2022-08-21T03:09:25;14.10;99.90
59148;DHT22;44930;52.878;6.168;2022-08-21T03:11:51;13.50;99.90
59148;DHT22;44930;52.878;6.168;2022-08-21T03:14:17;14.00;99.90
59148;DHT22;44930;52.878;6.168;2022-08-21T03:16:43;13.80;99.90
59148;DHT22;44930;52.878;6.168;2022-08-21T03:19:09;13.70;99.90
59148;DHT22;44930;52.878;6.168;2022-08-21T03:21:35;14.10;99.90
59148;DHT22;44930;52.878;6.168;2022-08-21T03:24:01;14.40;99.90
59148;DHT22;44930;52.878;6.168;2022-08-21T03:26:26;13.40;99.90
59148;DHT22;44930;52.878;6.168;2022-08-21T03:28:52;14.10;99.90
59148;DHT22;44930;52.878;6.168;2022-08-21T03:31:18;14.10;99.90
59148;DHT22;44930;52.878;6.168;2022-08-21T03:33:43;13.70;99.90
59148;DHT22;44930;52.878;6.168;2022-08-21T03:36:09;14.20;99.90
59148;DHT22;44930;52.878;6.168;2022-08-21T03:38:36;14.00;99.90
59148;DHT22;44930;52.878;6.168;2022-08-21T03:41:03;14.40;99.90
59148;DHT22;44930;52.878;6.168;2022-08-21T03:43:29;14.10;99.90
59148;DHT22;44930;52.878;6.168;2022-08-21T03:45:55;13.70;99.90
59148;DHT22;44930;52.878;6.168;2022-08-21T03:48:21;14.10;99.90
59148;DHT22;44930;52.878;6.168;2022-08-21T03:50:46;14.10;99.90
59148;DHT22;44930;52.878;6.168;2022-08-21T03:53:15;14.10;99.90
59148;DHT22;44930;52.878;6.168;2022-08-21T03:55:41;14.00;99.90
59148;DHT22;44930;52.878;6.168;2022-08-21T03:58:07;14.50;99.90
59148;DHT22;44930;52.878;6.168;2022-08-21T04:00:33;14.10;99.90
59148;DHT22;44930;52.878;6.168;2022-08-21T04:02:59;14.40;99.90
59148;DHT22;44930;52.878;6.168;2022-08-21T04:05:24;14.10;99.90
59148;DHT22;44930;52.878;6.168;2022-08-21T04:07:55;14.20;99.90
59148;DHT22;44930;52.878;6.168;2022-08-21T04:10:21;14.00;99.90
59148;DHT22;44930;52.878;6.168;2022-08-21T04:12:46;14.20;99.90
59148;DHT22;44930;52.878;6.168;2022-08-21T04:15:12;14.00;99.90
59148;DHT22;44930;52.878;6.168;2022-08-21T04:17:38;13.90;99.90
59148;DHT22;44930;52.878;6.168;2022-08-21T04:20:04;14.60;99.90
59148;DHT22;44930;52.878;6.168;2022-08-21T04:22:30;14.20;99.90
59148;DHT22;44930;52.878;6.168;2022-08-21T04:24:55;14.30;99.90
59148;DHT22;44930;52.878;6.168;2022-08-21T04:27:21;14.30;99.90
59148;DHT22;44930;52.878;6.168;2022-08-21T04:29:46;13.90;99.90
59148;DHT22;44930;52.878;6.168;2022-08-21T04:32:12;14.10;99.90
59148;DHT22;44930;52.878;6.168;2022-08-21T04:34:38;14.20;99.90
59148;DHT22;44930;52.878;6.168;2022-08-21T04:37:04;14.10;99.90
59148;DHT22;44930;52.878;6.168;2022-08-21T04:39:29;14.00;99.90
59148;DHT22;44930;52.878;6.168;2022-08-21T04:41:55;13.90;99.90
59148;DHT22;44930;52.878;6.168;2022-08-21T04:44:20;13.90;99.90
59148;DHT22;44930;52.878;6.168;2022-08-21T04:46:46;14.30;99.90
59148;DHT22;44930;52.878;6.168;2022-08-21T04:49:11;14.10;99.90
59148;DHT22;44930;52.878;6.168;2022-08-21T04:51:38;13.90;99.90
59148;DHT22;44930;52.878;6.168;2022-08-21T04:54:22;13.90;99.90
59148;DHT22;44930;52.878;6.168;2022-08-21T04:56:54;14.30;99.90
59148;DHT22;44930;52.878;6.168;2022-08-21T04:59:22;13.90;99.90
59148;DHT22;44930;52.878;6.168;2022-08-21T05:01:50;14.10;99.90
59148;DHT22;44930;52.878;6.168;2022-08-21T05:04:18;13.70;99.90
59148;DHT22;44930;52.878;6.168;2022-08-21T05:06:46;14.10;99.90
59148;DHT22;44930;52.878;6.168;2022-08-21T05:09:14;14.40;99.90
59148;DHT22;44930;52.878;6.168;2022-08-21T05:11:41;14.60;99.90
59148;DHT22;44930;52.878;6.168;2022-08-21T05:14:08;14.10;99.90
59148;DHT22;44930;52.878;6.168;2022-08-21T05:16:34;14.20;99.90
59148;DHT22;44930;52.878;6.168;2022-08-21T05:19:00;14.10;99.90
59148;DHT22;44930;52.878;6.168;2022-08-21T05:21:26;14.20;99.90
59148;DHT22;44930;52.878;6.168;2022-08-21T05:23:51;13.70;99.90
59148;DHT22;44930;52.878;6.168;2022-08-21T05:26:17;13.70;99.90
59148;DHT22;44930;52.878;6.168;2022-08-21T05:28:43;14.30;99.90
59148;DHT22;44930;52.878;6.168;2022-08-21T05:31:08;14.10;99.90
59148;DHT22;44930;52.878;6.168;2022-08-21T05:33:34;14.20;99.90
59148;DHT22;44930;52.878;6.168;2022-08-21T05:35:59;14.50;99.90
59148;DHT22;44930;52.878;6.168;2022-08-21T05:38:26;14.70;99.90
59148;DHT22;44930;52.878;6.168;2022-08-21T05:40:54;14.80;99.90
59148;DHT22;44930;52.878;6.168;2022-08-21T05:43:20;14.10;99.90
59148;DHT22;44930;52.878;6.168;2022-08-21T05:45:46;14.10;99.90
59148;DHT22;44930;52.878;6.168;2022-08-21T05:48:15;15.00;99.90
59148;DHT22;44930;52.878;6.168;2022-08-21T05:50:41;14.70;99.90
59148;DHT22;44930;52.878;6.168;2022-08-21T05:53:08;14.40;99.90
59148;DHT22;44930;52.878;6.168;2022-08-21T05:55:36;14.70;99.90
59148;DHT22;44930;52.878;6.168;2022-08-21T05:58:03;14.50;99.90
59148;DHT22;44930;52.878;6.168;2022-08-21T06:00:29;14.90;99.90
59148;DHT22;44930;52.878;6.168;2022-08-21T06:02:54;14.70;99.90
59148;DHT22;44930;52.878;6.168;2022-08-21T06:05:20;14.90;99.90
59148;DHT22;44930;52.878;6.168;2022-08-21T06:07:46;14.40;99.90
59148;DHT22;44930;52.878;6.168;2022-08-21T06:10:11;14.90;99.90
59148;DHT22;44930;52.878;6.168;2022-08-21T06:12:37;15.00;99.90
59148;DHT22;44930;52.878;6.168;2022-08-21T06:15:03;15.20;99.90
59148;DHT22;44930;52.878;6.168;2022-08-21T06:17:29;15.30;99.90
59148;DHT22;44930;52.878;6.168;2022-08-21T06:19:54;15.10;99.90
59148;DHT22;44930;52.878;6.168;2022-08-21T06:22:20;15.40;99.90
59148;DHT22;44930;52.878;6.168;2022-08-21T06:24:46;14.90;99.90
59148;DHT22;44930;52.878;6.168;2022-08-21T06:27:12;15.20;99.90
59148;DHT22;44930;52.878;6.168;2022-08-21T06:29:38;15.40;99.90
59148;DHT22;44930;52.878;6.168;2022-08-21T06:32:04;15.90;99.90
59148;DHT22;44930;52.878;6.168;2022-08-21T06:34:32;15.10;99.90
59148;DHT22;44930;52.878;6.168;2022-08-21T06:36:57;15.90;99.90
59148;DHT22;44930;52.878;6.168;2022-08-21T06:39:23;16.00;99.90
59148;DHT22;44930;52.878;6.168;2022-08-21T06:41:48;15.50;99.90
59148;DHT22;44930;52.878;6.168;2022-08-21T06:44:16;15.70;99.90
59148;DHT22;44930;52.878;6.168;2022-08-21T06:46:42;15.80;99.90
59148;DHT22;44930;52.878;6.168;2022-08-21T06:49:07;16.60;99.90
59148;DHT22;44930;52.878;6.168;2022-08-21T06:51:33;16.30;99.90
59148;DHT22;44930;52.878;6.168;2022-08-21T06:53:58;16.90;99.90
59148;DHT22;44930;52.878;6.168;2022-08-21T06:56:24;16.50;99.90
59148;DHT22;44930;52.878;6.168;2022-08-21T06:58:50;16.40;99.90
59148;DHT22;44930;52.878;6.168;2022-08-21T07:01:15;16.90;99.90
59148;DHT22;44930;52.878;6.168;2022-08-21T07:03:42;17.30;99.90
59148;DHT22;44930;52.878;6.168;2022-08-21T07:06:10;17.20;99.90
59148;DHT22;44930;52.878;6.168;2022-08-21T07:08:36;17.00;99.90
59148;DHT22;44930;52.878;6.168;2022-08-21T07:11:12;17.50;99.90
59148;DHT22;44930;52.878;6.168;2022-08-21T07:13:39;16.90;99.90
59148;DHT22;44930;52.878;6.168;2022-08-21T07:16:05;17.00;99.90
59148;DHT22;44930;52.878;6.168;2022-08-21T07:18:31;16.90;99.90
59148;DHT22;44930;52.878;6.168;2022-08-21T07:20:57;17.70;99.90
59148;DHT22;44930;52.878;6.168;2022-08-21T07:23:29;17.60;99.90
59148;DHT22;44930;52.878;6.168;2022-08-21T07:25:55;17.50;99.90
59148;DHT22;44930;52.878;6.168;2022-08-21T07:28:21;17.20;99.90
59148;DHT22;44930;52.878;6.168;2022-08-21T07:30:51;17.70;99.90
59148;DHT22;44930;52.878;6.168;2022-08-21T07:33:17;18.10;99.90
59148;DHT22;44930;52.878;6.168;2022-08-21T07:35:42;17.70;99.90
59148;DHT22;44930;52.878;6.168;2022-08-21T07:38:08;17.40;99.90
59148;DHT22;44930;52.878;6.168;2022-08-21T07:40:34;18.00;99.90
59148;DHT22;44930;52.878;6.168;2022-08-21T07:42:59;18.00;99.90
59148;DHT22;44930;52.878;6.168;2022-08-21T07:45:25;18.10;99.90
59148;DHT22;44930;52.878;6.168;2022-08-21T07:47:51;18.90;99.90
59148;DHT22;44930;52.878;6.168;2022-08-21T07:50:17;18.30;99.90
59148;DHT22;44930;52.878;6.168;2022-08-21T07:52:44;18.40;99.90
59148;DHT22;44930;52.878;6.168;2022-08-21T07:55:12;18.30;99.90
59148;DHT22;44930;52.878;6.168;2022-08-21T07:57:38;18.20;99.90
59148;DHT22;44930;52.878;6.168;2022-08-21T08:00:10;18.50;99.90
59148;DHT22;44930;52.878;6.168;2022-08-21T08:02:35;18.60;99.90
59148;DHT22;44930;52.878;6.168;2022-08-21T08:05:03;19.70;99.90
59148;DHT22;44930;52.878;6.168;2022-08-21T08:07:29;18.30;99.90
59148;DHT22;44930;52.878;6.168;2022-08-21T08:09:55;18.50;99.90
59148;DHT22;44930;52.878;6.168;2022-08-21T08:12:20;19.20;99.90
59148;DHT22;44930;52.878;6.168;2022-08-21T08:14:46;19.40;99.90
59148;DHT22;44930;52.878;6.168;2022-08-21T08:17:12;19.10;99.90
59148;DHT22;44930;52.878;6.168;2022-08-21T08:19:39;19.40;99.90
59148;DHT22;44930;52.878;6.168;2022-08-21T08:22:15;19.30;99.90
59148;DHT22;44930;52.878;6.168;2022-08-21T08:24:41;19.40;99.90
59148;DHT22;44930;52.878;6.168;2022-08-21T08:27:07;21.00;99.90
59148;DHT22;44930;52.878;6.168;2022-08-21T08:29:33;19.50;99.90
59148;DHT22;44930;52.878;6.168;2022-08-21T08:31:58;21.00;99.90
59148;DHT22;44930;52.878;6.168;2022-08-21T08:34:24;19.90;99.90
59148;DHT22;44930;52.878;6.168;2022-08-21T08:36:50;19.80;99.90
59148;DHT22;44930;52.878;6.168;2022-08-21T08:39:15;19.40;99.90
59148;DHT22;44930;52.878;6.168;2022-08-21T08:41:41;19.80;99.90
59148;DHT22;44930;52.878;6.168;2022-08-21T08:44:08;20.50;99.90
59148;DHT22;44930;52.878;6.168;2022-08-21T08:46:41;20.70;99.90
59148;DHT22;44930;52.878;6.168;2022-08-21T08:49:16;20.40;99.90
59148;DHT22;44930;52.878;6.168;2022-08-21T08:51:50;20.00;99.90
59148;DHT22;44930;52.878;6.168;2022-08-21T08:54:52;20.40;99.90
59148;DHT22;44930;52.878;6.168;2022-08-21T08:57:22;20.60;99.90
59148;DHT22;44930;52.878;6.168;2022-08-21T08:59:51;20.70;99.90
59148;DHT22;44930;52.878;6.168;2022-08-21T09:02:18;21.10;99.90
59148;DHT22;44930;52.878;6.168;2022-08-21T09:04:47;20.60;99.90
59148;DHT22;44930;52.878;6.168;2022-08-21T09:10:20;21.20;99.90
59148;DHT22;44930;52.878;6.168;2022-08-21T09:21:15;21.10;99.90
59148;DHT22;44930;52.878;6.168;2022-08-21T09:26:27;20.90;99.90
59148;DHT22;44930;52.878;6.168;2022-08-21T09:28:58;21.40;99.90
59148;DHT22;44930;52.878;6.168;2022-08-21T09:31:31;21.50;99.90
59148;DHT22;44930;52.878;6.168;2022-08-21T09:34:06;21.30;99.90
59148;DHT22;44930;52.878;6.168;2022-08-21T09:36:44;21.60;99.90
59148;DHT22;44930;52.878;6.168;2022-08-21T09:39:12;21.70;99.90
59148;DHT22;44930;52.878;6.168;2022-08-21T09:41:39;21.20;99.90
59148;DHT22;44930;52.878;6.168;2022-08-21T09:44:06;21.60;99.90
59148;DHT22;44930;52.878;6.168;2022-08-21T09:46:32;21.30;99.90
59148;DHT22;44930;52.878;6.168;2022-08-21T09:49:00;21.20;99.90
59148;DHT22;44930;52.878;6.168;2022-08-21T09:51:29;22.00;99.90
59148;DHT22;44930;52.878;6.168;2022-08-21T09:54:18;21.90;99.90
59148;DHT22;44930;52.878;6.168;2022-08-21T09:59:53;21.90;99.90
59148;DHT22;44930;52.878;6.168;2022-08-21T10:02:29;22.50;99.90
59148;DHT22;44930;52.878;6.168;2022-08-21T10:04:59;22.40;99.90
59148;DHT22;44930;52.878;6.168;2022-08-21T10:07:27;22.70;99.90
59148;DHT22;44930;52.878;6.168;2022-08-21T10:10:13;23.20;99.90
59148;DHT22;44930;52.878;6.168;2022-08-21T10:15:46;22.70;99.90
59148;DHT22;44930;52.878;6.168;2022-08-21T10:18:25;22.90;99.90
59148;DHT22;44930;52.878;6.168;2022-08-21T10:24:00;23.30;99.90
59148;DHT22;44930;52.878;6.168;2022-08-21T10:26:40;23.10;99.90
59148;DHT22;44930;52.878;6.168;2022-08-21T10:31:54;23.00;99.90
59148;DHT22;44930;52.878;6.168;2022-08-21T10:34:43;22.70;99.90
59148;DHT22;44930;52.878;6.168;2022-08-21T10:40:12;23.30;99.90
59148;DHT22;44930;52.878;6.168;2022-08-21T10:42:49;23.30;99.90
59148;DHT22;44930;52.878;6.168;2022-08-21T10:48:18;24.10;99.90
59148;DHT22;44930;52.878;6.168;2022-08-21T10:56:34;24.20;99.90
59148;DHT22;44930;52.878;6.168;2022-08-21T10:59:26;24.50;99.90
59148;DHT22;44930;52.878;6.168;2022-08-21T11:02:02;24.40;99.90
59148;DHT22;44930;52.878;6.168;2022-08-21T11:07:20;24.30;99.90
59148;DHT22;44930;52.878;6.168;2022-08-21T11:09:48;24.60;99.90
59148;DHT22;44930;52.878;6.168;2022-08-21T11:12:34;24.60;99.90
59148;DHT22;44930;52.878;6.168;2022-08-21T11:15:09;24.70;99.90
59148;DHT22;44930;52.878;6.168;2022-08-21T11:17:45;24.30;99.90
59148;DHT22;44930;52.878;6.168;2022-08-21T11:20:33;24.10;99.90
59148;DHT22;44930;52.878;6.168;2022-08-21T11:23:21;23.90;99.90
59148;DHT22;44930;52.878;6.168;2022-08-21T11:26:00;23.40;99.90
59148;DHT22;44930;52.878;6.168;2022-08-21T11:28:31;23.30;99.90
59148;DHT22;44930;52.878;6.168;2022-08-21T11:37:17;23.00;99.90
59148;DHT22;44930;52.878;6.168;2022-08-21T11:45:38;24.10;99.90
59148;DHT22;44930;52.878;6.168;2022-08-21T11:50:49;25.00;99.90
59148;DHT22;44930;52.878;6.168;2022-08-21T11:55:51;24.80;99.90
59148;DHT22;44930;52.878;6.168;2022-08-21T11:58:27;24.80;99.90
59148;DHT22;44930;52.878;6.168;2022-08-21T12:01:08;26.10;99.90
59148;DHT22;44930;52.878;6.168;2022-08-21T12:03:37;24.60;99.90
59148;DHT22;44930;52.878;6.168;2022-08-21T12:06:10;24.50;99.90
59148;DHT22;44930;52.878;6.168;2022-08-21T12:08:42;24.70;99.90
59148;DHT22;44930;52.878;6.168;2022-08-21T12:16:33;25.40;99.90
59148;DHT22;44930;52.878;6.168;2022-08-21T12:24:39;24.40;99.90
59148;DHT22;44930;52.878;6.168;2022-08-21T12:29:50;24.20;99.90
59148;DHT22;44930;52.878;6.168;2022-08-21T12:34:49;24.20;99.90
59148;DHT22;44930;52.878;6.168;2022-08-21T12:37:24;24.20;99.90
59148;DHT22;44930;52.878;6.168;2022-08-21T12:39:54;23.90;99.90
59148;DHT22;44930;52.878;6.168;2022-08-21T12:42:23;23.90;99.90
59148;DHT22;44930;52.878;6.168;2022-08-21T12:44:57;23.80;99.90
59148;DHT22;44930;52.878;6.168;2022-08-21T12:47:34;23.80;99.90
59148;DHT22;44930;52.878;6.168;2022-08-21T12:50:09;24.40;99.90
59148;DHT22;44930;52.878;6.168;2022-08-21T12:52:57;24.60;99.90
59148;DHT22;44930;52.878;6.168;2022-08-21T12:55:30;24.30;99.90
59148;DHT22;44930;52.878;6.168;2022-08-21T12:57:56;24.20;99.90
59148;DHT22;44930;52.878;6.168;2022-08-21T13:00:25;24.70;99.90
59148;DHT22;44930;52.878;6.168;2022-08-21T13:02:52;24.70;99.90
59148;DHT22;44930;52.878;6.168;2022-08-21T13:05:44;24.70;99.90
59148;DHT22;44930;52.878;6.168;2022-08-21T13:08:11;24.70;99.90
59148;DHT22;44930;52.878;6.168;2022-08-21T13:10:39;23.70;99.90
59148;DHT22;44930;52.878;6.168;2022-08-21T13:13:08;25.80;99.90
59148;DHT22;44930;52.878;6.168;2022-08-21T13:15:38;24.60;99.90
59148;DHT22;44930;52.878;6.168;2022-08-21T13:18:05;24.20;99.90
59148;DHT22;44930;52.878;6.168;2022-08-21T13:23:01;23.50;99.90
59148;DHT22;44930;52.878;6.168;2022-08-21T13:25:33;25.00;99.90
59148;DHT22;44930;52.878;6.168;2022-08-21T13:30:26;23.50;99.90
59148;DHT22;44930;52.878;6.168;2022-08-21T13:32:57;24.00;99.90
59148;DHT22;44930;52.878;6.168;2022-08-21T13:35:31;24.10;99.90
59148;DHT22;44930;52.878;6.168;2022-08-21T13:38:01;24.70;99.90
59148;DHT22;44930;52.878;6.168;2022-08-21T13:40:51;24.90;99.90
59148;DHT22;44930;52.878;6.168;2022-08-21T13:43:21;26.40;99.90
59148;DHT22;44930;52.878;6.168;2022-08-21T13:45:49;25.00;99.90
59148;DHT22;44930;52.878;6.168;2022-08-21T13:48:15;25.10;99.90
59148;DHT22;44930;52.878;6.168;2022-08-21T13:50:42;24.70;99.90
59148;DHT22;44930;52.878;6.168;2022-08-21T13:56:07;25.20;99.90
59148;DHT22;44930;52.878;6.168;2022-08-21T13:58:43;25.10;99.90
59148;DHT22;44930;52.878;6.168;2022-08-21T14:01:31;25.20;99.90
59148;DHT22;44930;52.878;6.168;2022-08-21T14:04:02;26.40;99.90
59148;DHT22;44930;52.878;6.168;2022-08-21T14:06:34;25.00;99.90
59148;DHT22;44930;52.878;6.168;2022-08-21T14:09:07;25.10;99.90
59148;DHT22;44930;52.878;6.168;2022-08-21T14:11:34;26.70;99.90
59148;DHT22;44930;52.878;6.168;2022-08-21T14:14:13;25.30;99.90
59148;DHT22;44930;52.878;6.168;2022-08-21T14:16:54;25.40;99.90
59148;DHT22;44930;52.878;6.168;2022-08-21T14:19:25;26.20;99.90
59148;DHT22;44930;52.878;6.168;2022-08-21T14:21:51;27.10;99.90
59148;DHT22;44930;52.878;6.168;2022-08-21T14:26:55;25.10;99.90
59148;DHT22;44930;52.878;6.168;2022-08-21T14:29:25;26.40;99.90
59148;DHT22;44930;52.878;6.168;2022-08-21T14:31:57;25.40;99.90
59148;DHT22;44930;52.878;6.168;2022-08-21T14:34:25;25.40;99.90
59148;DHT22;44930;52.878;6.168;2022-08-21T14:36:53;25.10;99.90
59148;DHT22;44930;52.878;6.168;2022-08-21T14:39:18;25.50;99.90
59148;DHT22;44930;52.878;6.168;2022-08-21T14:41:45;24.60;99.90
59148;DHT22;44930;52.878;6.168;2022-08-21T14:44:17;24.70;99.90
59148;DHT22;44930;52.878;6.168;2022-08-21T14:46:43;25.00;99.90
59148;DHT22;44930;52.878;6.168;2022-08-21T14:49:09;26.50;99.90
59148;DHT22;44930;52.878;6.168;2022-08-21T14:51:34;25.10;99.90
59148;DHT22;44930;52.878;6.168;2022-08-21T14:54:00;26.20;99.90
59148;DHT22;44930;52.878;6.168;2022-08-21T14:56:26;25.60;99.90
59148;DHT22;44930;52.878;6.168;2022-08-21T14:58:52;25.40;99.90
59148;DHT22;44930;52.878;6.168;2022-08-21T15:01:19;25.60;99.90
59148;DHT22;44930;52.878;6.168;2022-08-21T15:03:46;25.00;99.90
59148;DHT22;44930;52.878;6.168;2022-08-21T15:06:14;24.90;99.90
59148;DHT22;44930;52.878;6.168;2022-08-21T15:08:40;24.70;99.90
59148;DHT22;44930;52.878;6.168;2022-08-21T15:11:06;25.80;99.90
59148;DHT22;44930;52.878;6.168;2022-08-21T15:13:34;24.60;99.90
59148;DHT22;44930;52.878;6.168;2022-08-21T15:15:59;24.50;99.90
59148;DHT22;44930;52.878;6.168;2022-08-21T15:18:26;24.30;99.90
59148;DHT22;44930;52.878;6.168;2022-08-21T15:20:53;24.10;99.90
59148;DHT22;44930;52.878;6.168;2022-08-21T15:23:19;24.00;99.90
59148;DHT22;44930;52.878;6.168;2022-08-21T15:25:47;24.00;99.90
59148;DHT22;44930;52.878;6.168;2022-08-21T15:28:14;24.10;99.90
59148;DHT22;44930;52.878;6.168;2022-08-21T15:30:40;25.10;99.90
59148;DHT22;44930;52.878;6.168;2022-08-21T15:33:07;24.10;99.90
59148;DHT22;44930;52.878;6.168;2022-08-21T15:35:33;25.30;99.90
59148;DHT22;44930;52.878;6.168;2022-08-21T15:37:58;24.70;99.90
59148;DHT22;44930;52.878;6.168;2022-08-21T15:40:24;24.50;99.90
59148;DHT22;44930;52.878;6.168;2022-08-21T15:42:52;24.30;99.90
59148;DHT22;44930;52.878;6.168;2022-08-21T15:45:21;24.20;99.90
59148;DHT22;44930;52.878;6.168;2022-08-21T15:47:48;24.60;99.90
59148;DHT22;44930;52.878;6.168;2022-08-21T15:50:15;24.90;99.90
59148;DHT22;44930;52.878;6.168;2022-08-21T15:52:41;24.70;99.90
59148;DHT22;44930;52.878;6.168;2022-08-21T15:55:07;25.30;99.90
59148;DHT22;44930;52.878;6.168;2022-08-21T15:57:34;25.50;99.90
59148;DHT22;44930;52.878;6.168;2022-08-21T16:00:10;26.10;99.90
59148;DHT22;44930;52.878;6.168;2022-08-21T16:02:40;24.90;99.90
59148;DHT22;44930;52.878;6.168;2022-08-21T16:05:07;25.00;99.90
59148;DHT22;44930;52.878;6.168;2022-08-21T16:07:35;24.00;99.90
59148;DHT22;44930;52.878;6.168;2022-08-21T16:10:01;25.00;99.90
59148;DHT22;44930;52.878;6.168;2022-08-21T16:12:32;24.50;99.90
59148;DHT22;44930;52.878;6.168;2022-08-21T16:15:00;24.10;99.90
59148;DHT22;44930;52.878;6.168;2022-08-21T16:17:34;24.00;99.90
59148;DHT22;44930;52.878;6.168;2022-08-21T16:20:03;23.90;99.90
59148;DHT22;44930;52.878;6.168;2022-08-21T16:22:29;23.40;99.90
59148;DHT22;44930;52.878;6.168;2022-08-21T16:24:54;23.40;99.90
59148;DHT22;44930;52.878;6.168;2022-08-21T16:27:20;23.60;99.90
59148;DHT22;44930;52.878;6.168;2022-08-21T16:29:46;23.00;99.90
59148;DHT22;44930;52.878;6.168;2022-08-21T16:32:12;23.10;99.90
59148;DHT22;44930;52.878;6.168;2022-08-21T16:34:42;23.00;99.90
59148;DHT22;44930;52.878;6.168;2022-08-21T16:37:09;23.20;99.90
59148;DHT22;44930;52.878;6.168;2022-08-21T16:39:35;23.00;99.90
59148;DHT22;44930;52.878;6.168;2022-08-21T16:42:01;23.20;99.90
59148;DHT22;44930;52.878;6.168;2022-08-21T16:44:27;24.20;99.90
59148;DHT22;44930;52.878;6.168;2022-08-21T16:46:52;22.50;99.90
59148;DHT22;44930;52.878;6.168;2022-08-21T16:49:18;22.90;99.90
59148;DHT22;44930;52.878;6.168;2022-08-21T16:51:44;22.80;99.90
59148;DHT22;44930;52.878;6.168;2022-08-21T16:54:10;23.00;99.90
59148;DHT22;44930;52.878;6.168;2022-08-21T16:56:36;22.00;99.90
59148;DHT22;44930;52.878;6.168;2022-08-21T16:59:03;22.30;99.90
59148;DHT22;44930;52.878;6.168;2022-08-21T17:01:31;22.30;99.90